createdAt,value
2018-06-24T00:00:08.606Z,95620.93
2018-06-24T00:02:37.905Z,95619.52
2018-06-24T00:05:07.216Z,95613.04
2018-06-24T00:07:36.481Z,95612.91
2018-06-24T00:10:05.765Z,95613.19
2018-06-24T00:12:35.077Z,95609.37
2018-06-24T00:15:04.650Z,95593.92
2018-06-24T00:17:34.006Z,95600.66
2018-06-24T00:20:03.327Z,95595.46
2018-06-24T00:22:32.609Z,95597.72
2018-06-24T00:25:01.889Z,95590.62
2018-06-24T00:27:31.193Z,95594.48
2018-06-24T00:30:00.497Z,95589.75
2018-06-24T00:32:29.772Z,95584.52
2018-06-24T00:34:59.130Z,95587.57
2018-06-24T00:37:28.569Z,95588.56
2018-06-24T00:39:57.962Z,95593.39
2018-06-24T00:42:27.238Z,95593.63
2018-06-24T00:44:56.524Z,95591.84
2018-06-24T00:47:25.809Z,95595.16
2018-06-24T00:49:55.087Z,95595.20
2018-06-24T00:52:24.474Z,95588.84
2018-06-24T00:54:53.785Z,95587.35
2018-06-24T00:57:23.141Z,95580.54
2018-06-24T01:00:03.558Z,95580.25
2018-06-24T01:02:32.885Z,95581.88
2018-06-24T01:05:02.204Z,95576.83
2018-06-24T01:07:31.588Z,95577.95
2018-06-24T01:10:00.989Z,95577.33
2018-06-24T01:12:30.473Z,95574.05
2018-06-24T01:14:59.934Z,95572.97
2018-06-24T01:17:29.459Z,95564.73
2018-06-24T01:19:59.821Z,95558.55
2018-06-24T01:22:29.217Z,95559.67
2018-06-24T01:24:58.594Z,95559.36
2018-06-24T01:27:27.933Z,95544.69
2018-06-24T01:29:57.214Z,95549.73
2018-06-24T01:32:26.482Z,95545.59
2018-06-24T01:34:55.836Z,95540.53
2018-06-24T01:37:25.182Z,95546.00
2018-06-24T01:39:54.521Z,95551.47
2018-06-24T01:42:23.905Z,95550.27
2018-06-24T01:44:53.173Z,95548.73
2018-06-24T01:47:22.499Z,95545.08
2018-06-24T01:49:51.763Z,95547.13
2018-06-24T01:52:21.112Z,95541.01
2018-06-24T01:54:50.533Z,95542.51
2018-06-24T01:57:19.865Z,95544.78
2018-06-24T01:59:49.241Z,95538.92
2018-06-24T02:02:18.642Z,95538.70
2018-06-24T02:04:47.972Z,95531.33
2018-06-24T02:07:18.233Z,95526.67
2018-06-24T02:09:47.679Z,95529.30
2018-06-24T02:12:17.104Z,95535.16
2018-06-24T02:14:46.462Z,95527.69
2018-06-24T02:17:15.771Z,95522.83
2018-06-24T02:19:45.074Z,95522.75
2018-06-24T02:22:14.409Z,95530.48
2018-06-24T02:24:43.690Z,95524.67
2018-06-24T02:27:12.996Z,95526.91
2018-06-24T02:29:42.364Z,95523.95
2018-06-24T02:32:11.767Z,95526.73
2018-06-24T02:34:41.133Z,95516.79
2018-06-24T02:37:10.474Z,95518.05
2018-06-24T02:39:39.872Z,95517.76
2018-06-24T02:42:09.238Z,95521.98
2018-06-24T02:44:38.580Z,95521.98
2018-06-24T02:47:07.876Z,95517.77
2018-06-24T02:49:37.221Z,95516.55
2018-06-24T02:52:06.712Z,95513.20
2018-06-24T02:54:36.087Z,95515.91
2018-06-24T02:57:05.423Z,95505.97
2018-06-24T02:59:34.820Z,95502.41
2018-06-24T03:02:04.213Z,95508.41
2018-06-24T03:04:33.594Z,95501.94
2018-06-24T03:07:03.129Z,95501.06
2018-06-24T03:09:32.489Z,95506.80
2018-06-24T03:12:01.766Z,95503.19
2018-06-24T03:14:31.127Z,95499.19
2018-06-24T03:17:00.462Z,95497.20
2018-06-24T03:19:29.854Z,95497.13
2018-06-24T03:21:59.233Z,95500.42
2018-06-24T03:24:28.570Z,95487.93
2018-06-24T03:26:57.885Z,95491.77
2018-06-24T03:29:27.237Z,95494.59
2018-06-24T03:31:56.562Z,95487.75
2018-06-24T03:34:25.911Z,95488.67
2018-06-24T03:36:55.218Z,95489.63
2018-06-24T03:39:24.566Z,95495.47
2018-06-24T03:41:53.920Z,95491.75
2018-06-24T03:44:23.206Z,95502.70
2018-06-24T03:46:52.529Z,95495.23
2018-06-24T03:49:21.838Z,95498.55
2018-06-24T03:51:51.221Z,95499.68
2018-06-24T03:54:20.531Z,95492.14
2018-06-24T03:56:49.935Z,95496.30
2018-06-24T03:59:19.225Z,95494.25
2018-06-24T04:01:48.702Z,95501.01
2018-06-24T04:04:18.008Z,95503.64
2018-06-24T04:06:47.362Z,95502.88
2018-06-24T04:09:16.729Z,95499.77
2018-06-24T04:11:46.088Z,95496.37
2018-06-24T04:14:15.443Z,95498.67
2018-06-24T04:16:44.770Z,95506.77
2018-06-24T04:19:14.092Z,95503.29
2018-06-24T04:21:43.554Z,95507.00
2018-06-24T04:24:12.877Z,95509.39
2018-06-24T04:26:42.280Z,95509.66
2018-06-24T04:29:11.609Z,95508.33
2018-06-24T04:31:40.961Z,95505.55
2018-06-24T04:34:10.372Z,95502.94
2018-06-24T04:36:39.754Z,95508.16
2018-06-24T04:39:10.242Z,95500.60
2018-06-24T04:41:39.681Z,95500.19
2018-06-24T04:44:09.090Z,95502.34
2018-06-24T04:46:38.398Z,95498.22
2018-06-24T04:49:07.702Z,95508.61
2018-06-24T04:51:37.076Z,95506.05
2018-06-24T04:54:06.350Z,95502.93
2018-06-24T04:56:35.735Z,95502.89
2018-06-24T04:59:05.072Z,95503.22
2018-06-24T05:01:34.555Z,95500.81
2018-06-24T05:04:03.895Z,95497.71
2018-06-24T05:06:33.343Z,95500.25
2018-06-24T05:09:02.648Z,95498.17
2018-06-24T05:11:31.950Z,95502.88
2018-06-24T05:14:01.361Z,95502.31
2018-06-24T05:16:30.647Z,95504.58
2018-06-24T05:19:00.018Z,95502.06
2018-06-24T05:21:29.438Z,95502.73
2018-06-24T05:23:58.729Z,95502.56
2018-06-24T05:26:28.163Z,95504.58
2018-06-24T05:28:57.469Z,95508.30
2018-06-24T05:31:26.810Z,95507.61
2018-06-24T05:33:56.103Z,95513.44
2018-06-24T05:36:25.397Z,95507.33
2018-06-24T05:38:54.806Z,95504.55
2018-06-24T05:41:24.091Z,95508.44
2018-06-24T05:43:53.462Z,95508.23
2018-06-24T05:46:22.757Z,95508.22
2018-06-24T05:48:52.128Z,95513.72
2018-06-24T05:51:21.380Z,95509.17
2018-06-24T05:53:50.662Z,95510.03
2018-06-24T05:56:19.959Z,95510.52
2018-06-24T05:58:49.354Z,95514.35
2018-06-24T06:01:18.857Z,95521.14
2018-06-24T06:03:48.183Z,95510.55
2018-06-24T06:06:17.536Z,95517.34
2018-06-24T06:08:46.906Z,95523.92
2018-06-24T06:11:16.255Z,95521.42
2018-06-24T06:13:45.681Z,95515.91
2018-06-24T06:16:15.091Z,95512.73
2018-06-24T06:18:44.652Z,95513.84
2018-06-24T06:21:14.010Z,95511.83
2018-06-24T06:23:43.385Z,95516.17
2018-06-24T06:26:12.806Z,95512.29
2018-06-24T06:28:42.164Z,95508.41
2018-06-24T06:31:11.553Z,95511.61
2018-06-24T06:33:40.959Z,95514.67
2018-06-24T06:36:10.353Z,95516.36
2018-06-24T06:38:39.685Z,95521.61
2018-06-24T06:41:09.041Z,95533.98
2018-06-24T06:43:38.447Z,95527.97
2018-06-24T06:46:11.653Z,95526.90
2018-06-24T06:48:41.083Z,95526.40
2018-06-24T06:51:11.315Z,95527.52
2018-06-24T06:53:40.651Z,95529.00
2018-06-24T06:56:10.038Z,95531.45
2018-06-24T06:58:39.473Z,95528.69
2018-06-24T07:01:08.830Z,95526.72
2018-06-24T07:03:38.345Z,95536.47
2018-06-24T07:06:07.741Z,95542.27
2018-06-24T07:08:37.086Z,95546.47
2018-06-24T07:11:06.471Z,95544.73
2018-06-24T07:13:35.898Z,95550.47
2018-06-24T07:16:05.391Z,95552.08
2018-06-24T07:18:34.839Z,95543.86
2018-06-24T07:21:04.221Z,95541.91
2018-06-24T07:23:33.643Z,95548.23
2018-06-24T07:26:02.990Z,95544.41
2018-06-24T07:28:32.345Z,95539.57
2018-06-24T07:31:01.706Z,95543.58
2018-06-24T07:33:31.118Z,95537.31
2018-06-24T07:36:00.409Z,95544.20
2018-06-24T07:38:29.718Z,95546.43
2018-06-24T07:40:59.070Z,95542.84
2018-06-24T07:43:28.426Z,95540.34
2018-06-24T07:45:57.756Z,95549.48
2018-06-24T07:48:27.146Z,95550.11
2018-06-24T07:50:56.542Z,95550.07
2018-06-24T07:53:26.055Z,95546.70
2018-06-24T07:55:55.548Z,95553.89
2018-06-24T07:58:24.970Z,95545.73
2018-06-24T08:00:54.421Z,95543.30
2018-06-24T08:03:23.721Z,95547.13
2018-06-24T08:05:53.022Z,95544.90
2018-06-24T08:08:23.237Z,95548.09
2018-06-24T08:10:52.835Z,95542.31
2018-06-24T08:13:22.155Z,95549.90
2018-06-24T08:15:52.277Z,95547.97
2018-06-24T08:18:21.685Z,95546.95
2018-06-24T08:20:50.990Z,95544.34
2018-06-24T08:23:20.319Z,95549.22
2018-06-24T08:25:49.845Z,95550.83
2018-06-24T08:28:19.172Z,95550.99
2018-06-24T08:30:48.533Z,95552.91
2018-06-24T08:33:17.917Z,95546.08
2018-06-24T08:35:47.395Z,95552.30
2018-06-24T08:38:16.746Z,95550.83
2018-06-24T08:40:46.123Z,95543.73
2018-06-24T08:43:15.541Z,95550.60
2018-06-24T08:45:45.000Z,95557.34
2018-06-24T08:48:14.391Z,95548.19
2018-06-24T08:50:43.851Z,95548.52
2018-06-24T08:53:13.189Z,95555.05
2018-06-24T08:55:42.539Z,95555.34
2018-06-24T08:58:11.861Z,95559.72
2018-06-24T09:00:41.309Z,95553.78
2018-06-24T09:03:10.640Z,95558.39
2018-06-24T09:05:40.086Z,95559.47
2018-06-24T09:08:09.505Z,95558.02
2018-06-24T09:10:38.810Z,95563.01
2018-06-24T09:13:08.103Z,95568.27
2018-06-24T09:15:37.445Z,95556.92
2018-06-24T09:18:06.867Z,95558.91
2018-06-24T09:20:36.277Z,95557.44
2018-06-24T09:23:06.045Z,95556.38
2018-06-24T09:25:35.491Z,95550.53
2018-06-24T09:28:04.889Z,95552.86
2018-06-24T09:30:34.269Z,95559.03
2018-06-24T09:33:03.615Z,95557.73
2018-06-24T09:35:32.937Z,95564.34
2018-06-24T09:38:02.350Z,95564.28
2018-06-24T09:40:31.735Z,95565.70
2018-06-24T09:43:01.070Z,95558.25
2018-06-24T09:45:30.416Z,95561.06
2018-06-24T09:47:59.733Z,95555.11
2018-06-24T09:50:29.102Z,95568.39
2018-06-24T09:52:58.388Z,95564.17
2018-06-24T09:55:27.750Z,95564.09
2018-06-24T09:57:57.050Z,95563.09
2018-06-24T10:00:26.401Z,95558.28
2018-06-24T10:02:55.689Z,95562.98
2018-06-24T10:05:25.096Z,95557.38
2018-06-24T10:07:54.479Z,95559.85
2018-06-24T10:10:23.800Z,95561.55
2018-06-24T10:12:53.188Z,95559.64
2018-06-24T10:15:22.558Z,95563.27
2018-06-24T10:17:51.926Z,95562.24
2018-06-24T10:20:21.382Z,95564.22
2018-06-24T10:22:50.695Z,95561.42
2018-06-24T10:25:20.008Z,95555.94
2018-06-24T10:27:49.287Z,95562.52
2018-06-24T10:30:18.639Z,95564.41
2018-06-24T10:32:48.030Z,95557.02
2018-06-24T10:35:17.405Z,95561.81
2018-06-24T10:37:46.686Z,95564.09
2018-06-24T10:40:16.040Z,95567.86
2018-06-24T10:42:45.389Z,95564.71
2018-06-24T10:45:14.693Z,95564.66
2018-06-24T10:47:44.048Z,95561.36
2018-06-24T10:50:14.365Z,95551.47
2018-06-24T10:52:43.679Z,95555.80
2018-06-24T10:55:13.009Z,95556.59
2018-06-24T10:57:42.318Z,95551.33
2018-06-24T11:00:11.737Z,95540.65
2018-06-24T11:02:41.041Z,95545.58
2018-06-24T11:05:10.337Z,95546.81
2018-06-24T11:07:39.707Z,95543.58
2018-06-24T11:10:09.186Z,95547.88
2018-06-24T11:12:38.541Z,95551.50
2018-06-24T11:15:07.887Z,95550.97
2018-06-24T11:17:37.162Z,95546.73
2018-06-24T11:20:06.497Z,95548.73
2018-06-24T11:22:35.887Z,95550.39
2018-06-24T11:25:05.732Z,95544.23
2018-06-24T11:27:35.355Z,95553.14
2018-06-24T11:30:06.192Z,95543.05
2018-06-24T11:32:35.514Z,95541.37
2018-06-24T11:35:06.993Z,95541.42
2018-06-24T11:37:37.848Z,95537.77
2018-06-24T11:40:10.232Z,95543.38
2018-06-24T11:42:41.744Z,95540.80
2018-06-24T11:45:16.179Z,95541.94
2018-06-24T11:47:46.839Z,95547.97
2018-06-24T11:50:21.852Z,95541.82
2018-06-24T11:52:52.424Z,95543.45
2018-06-24T11:55:24.935Z,95537.55
2018-06-24T11:57:57.508Z,95538.97
2018-06-24T12:00:28.972Z,95545.00
2018-06-24T12:03:06.515Z,95542.92
2018-06-24T12:05:38.107Z,95546.60
2018-06-24T12:08:08.561Z,95545.77
2018-06-24T12:10:40.481Z,95535.45
2018-06-24T12:13:13.866Z,95540.39
2018-06-24T12:15:44.220Z,95537.09
2018-06-24T12:18:17.961Z,95541.91
2018-06-24T12:20:50.491Z,95534.30
2018-06-24T12:23:22.312Z,95534.97
2018-06-24T12:25:53.671Z,95535.00
2018-06-24T12:28:23.800Z,95536.33
2018-06-24T12:30:53.089Z,95540.70
2018-06-24T12:33:22.397Z,95537.05
2018-06-24T12:35:51.768Z,95540.67
2018-06-24T12:38:21.094Z,95542.57
2018-06-24T12:40:50.477Z,95548.89
2018-06-24T12:43:19.784Z,95544.66
2018-06-24T12:45:49.096Z,95549.51
2018-06-24T12:48:18.510Z,95549.53
2018-06-24T12:50:47.832Z,95543.19
2018-06-24T12:53:17.189Z,95544.63
2018-06-24T12:55:46.493Z,95544.72
2018-06-24T12:58:15.833Z,95536.73
2018-06-24T13:00:45.429Z,95540.14
2018-06-24T13:03:14.428Z,95536.51
2018-06-24T13:05:43.746Z,95548.27
2018-06-24T13:08:13.087Z,95543.56
2018-06-24T13:10:42.398Z,95539.08
2018-06-24T13:13:11.702Z,95536.41
2018-06-24T13:15:41.008Z,95535.02
2018-06-24T13:18:10.325Z,95540.11
2018-06-24T13:20:39.639Z,95538.94
2018-06-24T13:23:08.948Z,95529.89
2018-06-24T13:25:38.311Z,95540.05
2018-06-24T13:28:07.688Z,95541.80
2018-06-24T13:30:37.015Z,95529.59
2018-06-24T13:33:06.461Z,95533.19
2018-06-24T13:35:35.918Z,95523.66
2018-06-24T13:38:05.493Z,95520.75
2018-06-24T13:40:34.777Z,95517.17
2018-06-24T13:43:04.099Z,95520.45
2018-06-24T13:45:33.433Z,95511.94
2018-06-24T13:48:02.789Z,95517.56
2018-06-24T13:50:32.103Z,95516.08
2018-06-24T13:53:01.437Z,95519.45
2018-06-24T13:55:30.785Z,95520.98
2018-06-24T13:58:00.205Z,95522.09
2018-06-24T14:00:29.578Z,95526.33
2018-06-24T14:02:58.953Z,95518.83
2018-06-24T14:05:28.297Z,95529.64
2018-06-24T14:07:57.662Z,95513.83
2018-06-24T14:10:28.129Z,95521.45
2018-06-24T14:12:57.488Z,95518.53
2018-06-24T14:15:26.842Z,95518.70
2018-06-24T14:17:56.205Z,95517.50
2018-06-24T14:20:25.535Z,95515.63
2018-06-24T14:22:54.914Z,95521.36
2018-06-24T14:25:24.244Z,95517.02
2018-06-24T14:27:53.617Z,95526.02
2018-06-24T14:30:22.984Z,95522.16
2018-06-24T14:32:52.338Z,95530.90
2018-06-24T14:35:21.762Z,95529.98
2018-06-24T14:37:51.103Z,95529.96
2018-06-24T14:40:20.553Z,95527.19
2018-06-24T14:42:49.942Z,95523.39
2018-06-24T14:45:19.337Z,95525.75
2018-06-24T14:47:48.751Z,95519.83
2018-06-24T14:50:18.278Z,95518.22
2018-06-24T14:52:47.681Z,95516.72
2018-06-24T14:55:17.074Z,95510.15
2018-06-24T14:57:46.443Z,95520.11
2018-06-24T15:00:15.829Z,95518.98
2018-06-24T15:02:45.252Z,95516.23
2018-06-24T15:05:14.676Z,95514.78
2018-06-24T15:07:44.108Z,95512.06
2018-06-24T15:10:13.452Z,95517.08
2018-06-24T15:12:42.833Z,95517.84
2018-06-24T15:15:12.407Z,95515.80
2018-06-24T15:17:41.840Z,95516.34
2018-06-24T15:20:11.194Z,95513.13
2018-06-24T15:22:40.549Z,95516.84
2018-06-24T15:25:09.953Z,95518.80
2018-06-24T15:27:39.355Z,95511.73
2018-06-24T15:30:08.817Z,95514.28
2018-06-24T15:32:38.133Z,95510.13
2018-06-24T15:35:07.589Z,95511.46
2018-06-24T15:37:36.973Z,95510.17
2018-06-24T15:40:06.322Z,95502.83
2018-06-24T15:42:35.791Z,95501.33
2018-06-24T15:45:05.305Z,95505.91
2018-06-24T15:47:34.573Z,95503.55
2018-06-24T15:50:03.934Z,95508.96
2018-06-24T15:52:33.253Z,95502.83
2018-06-24T15:55:02.595Z,95513.59
2018-06-24T15:57:32.206Z,95505.16
2018-06-24T16:00:01.481Z,95506.02
2018-06-24T16:02:30.808Z,95511.61
2018-06-24T16:05:00.126Z,95502.70
2018-06-24T16:07:29.553Z,95501.82
2018-06-24T16:09:58.909Z,95493.65
2018-06-24T16:12:29.226Z,95497.72
2018-06-24T16:14:58.632Z,95489.09
2018-06-24T16:17:27.973Z,95485.96
2018-06-24T16:19:57.251Z,95493.14
2018-06-24T16:22:26.555Z,95493.48
2018-06-24T16:24:55.865Z,95495.20
2018-06-24T16:27:26.432Z,95481.78
2018-06-24T16:29:55.733Z,95495.75
2018-06-24T16:32:25.036Z,95489.14
2018-06-24T16:34:54.379Z,95485.47
2018-06-24T16:37:23.772Z,95486.48
2018-06-24T16:39:53.195Z,95488.61
2018-06-24T16:42:22.574Z,95484.90
2018-06-24T16:44:51.914Z,95484.09
2018-06-24T16:47:21.284Z,95480.77
2018-06-24T16:49:50.811Z,95485.22
2018-06-24T16:52:20.085Z,95486.25
2018-06-24T16:54:49.413Z,95487.15
2018-06-24T16:57:18.773Z,95482.25
2018-06-24T16:59:48.086Z,95482.11
2018-06-24T17:02:17.657Z,95483.31
2018-06-24T17:04:47.013Z,95482.19
2018-06-24T17:07:16.385Z,95479.75
2018-06-24T17:09:45.705Z,95489.70
2018-06-24T17:12:15.081Z,95485.43
2018-06-24T17:14:44.590Z,95482.81
2018-06-24T17:17:13.946Z,95479.84
2018-06-24T17:19:43.324Z,95483.63
2018-06-24T17:22:12.630Z,95481.14
2018-06-24T17:24:41.958Z,95481.23
2018-06-24T17:27:11.398Z,95480.48
2018-06-24T17:29:40.749Z,95480.52
2018-06-24T17:32:10.072Z,95481.58
2018-06-24T17:34:39.446Z,95486.95
2018-06-24T17:37:09.003Z,95480.52
2018-06-24T17:39:38.353Z,95482.33
2018-06-24T17:42:07.730Z,95482.98
2018-06-24T17:44:37.129Z,95479.61
2018-06-24T17:47:06.866Z,95484.58
2018-06-24T17:49:36.262Z,95481.14
2018-06-24T17:52:05.650Z,95480.44
2018-06-24T17:54:35.033Z,95476.49
2018-06-24T17:57:04.408Z,95482.27
2018-06-24T17:59:33.758Z,95478.00
2018-06-24T18:02:03.220Z,95476.08
2018-06-24T18:04:32.569Z,95477.88
2018-06-24T18:07:01.886Z,95476.85
2018-06-24T18:09:31.389Z,95471.59
2018-06-24T18:12:00.803Z,95469.30
2018-06-24T18:14:30.214Z,95472.89
2018-06-24T18:16:59.553Z,95461.03
2018-06-24T18:19:28.869Z,95464.31
2018-06-24T18:21:58.187Z,95466.25
2018-06-24T18:24:27.508Z,95462.48
2018-06-24T18:26:56.867Z,95454.80
2018-06-24T18:29:26.226Z,95452.72
2018-06-24T18:31:55.626Z,95458.52
2018-06-24T18:34:24.941Z,95451.46
2018-06-24T18:36:54.310Z,95453.75
2018-06-24T18:39:23.620Z,95464.33
2018-06-24T18:41:52.905Z,95468.55
2018-06-24T18:44:22.265Z,95469.50
2018-06-24T18:46:51.546Z,95471.73
2018-06-24T18:49:20.923Z,95471.84
2018-06-24T18:51:50.169Z,95465.75
2018-06-24T18:54:19.501Z,95466.85
2018-06-24T18:56:48.890Z,95474.27
2018-06-24T18:59:18.181Z,95481.21
2018-06-24T19:01:47.667Z,95476.33
2018-06-24T19:04:18.025Z,95472.95
2018-06-24T19:06:47.425Z,95472.86
2018-06-24T19:09:16.714Z,95469.92
2018-06-24T19:11:45.997Z,95472.05
2018-06-24T19:14:15.356Z,95468.70
2018-06-24T19:16:44.633Z,95467.11
2018-06-24T19:19:14.076Z,95470.53
2018-06-24T19:21:43.365Z,95460.66
2018-06-24T19:24:12.644Z,95459.36
2018-06-24T19:26:41.948Z,95457.03
2018-06-24T19:29:11.228Z,95459.75
2018-06-24T19:31:40.635Z,95455.94
2018-06-24T19:34:09.950Z,95455.70
2018-06-24T19:36:39.313Z,95457.81
2018-06-24T19:39:10.389Z,95457.82
2018-06-24T19:41:39.910Z,95459.08
2018-06-24T19:44:09.341Z,95456.69
2018-06-24T19:46:38.661Z,95455.94
2018-06-24T19:49:07.969Z,95457.80
2018-06-24T19:51:37.373Z,95451.52
2018-06-24T19:54:06.956Z,95459.54
2018-06-24T19:56:36.410Z,95459.36
2018-06-24T19:59:05.727Z,95456.43
2018-06-24T20:01:35.297Z,95456.45
2018-06-24T20:04:04.655Z,95462.97
2018-06-24T20:06:34.077Z,95460.39
2018-06-24T20:09:04.730Z,95463.53
2018-06-24T20:11:34.054Z,95452.86
2018-06-24T20:14:03.422Z,95453.92
2018-06-24T20:16:32.839Z,95460.07
2018-06-24T20:19:02.196Z,95457.55
2018-06-24T20:21:31.557Z,95470.27
2018-06-24T20:24:00.885Z,95467.73
2018-06-24T20:26:30.294Z,95469.86
2018-06-24T20:28:59.626Z,95465.63
2018-06-24T20:31:28.992Z,95465.22
2018-06-24T20:33:58.538Z,95476.36
